sensor_id;sensor_type;location;lat;lon;timestamp;temperature;humidity
44695;DHT22;32845;59.422;17.930;2024-01-30T00:04:29;2.40;99.90
44695;DHT22;32845;59.422;17.930;2024-01-30T00:09:00;2.30;99.90
44695;DHT22;32845;59.422;17.930;2024-01-30T00:13:31;2.20;99.90
44695;DHT22;32845;59.422;17.930;2024-01-30T00:18:01;2.20;99.90
44695;DHT22;32845;59.422;17.930;2024-01-30T00:22:32;2.10;99.90
44695;DHT22;32845;59.422;17.930;2024-01-30T00:27:02;2.00;99.90
44695;DHT22;32845;59.422;17.930;2024-01-30T00:31:33;2.00;99.90
44695;DHT22;32845;59.422;17.930;2024-01-30T00:36:05;1.90;99.90
44695;DHT22;32845;59.422;17.930;2024-01-30T00:40:37;1.90;99.90
44695;DHT22;32845;59.422;17.930;2024-01-30T00:45:13;1.90;99.90
44695;DHT22;32845;59.422;17.930;2024-01-30T00:49:44;1.80;99.90
44695;DHT22;32845;59.422;17.930;2024-01-30T00:54:14;1.80;99.90
44695;DHT22;32845;59.422;17.930;2024-01-30T00:58:45;1.80;99.90
44695;DHT22;32845;59.422;17.930;2024-01-30T01:03:16;1.80;99.90
44695;DHT22;32845;59.422;17.930;2024-01-30T01:07:46;1.90;99.90
44695;DHT22;32845;59.422;17.930;2024-01-30T01:12:18;1.90;99.90
44695;DHT22;32845;59.422;17.930;2024-01-30T01:16:49;2.00;99.90
44695;DHT22;32845;59.422;17.930;2024-01-30T01:21:19;2.00;99.90
44695;DHT22;32845;59.422;17.930;2024-01-30T01:25:50;2.10;99.90
44695;DHT22;32845;59.422;17.930;2024-01-30T01:30:20;2.10;99.90
44695;DHT22;32845;59.422;17.930;2024-01-30T01:34:54;2.20;99.90
44695;DHT22;32845;59.422;17.930;2024-01-30T01:39:24;2.20;99.90
44695;DHT22;32845;59.422;17.930;2024-01-30T01:43:55;2.10;99.90
44695;DHT22;32845;59.422;17.930;2024-01-30T01:48:26;2.10;99.90
44695;DHT22;32845;59.422;17.930;2024-01-30T01:52:57;2.00;99.90
44695;DHT22;32845;59.422;17.930;2024-01-30T01:57:28;2.00;99.90
44695;DHT22;32845;59.422;17.930;2024-01-30T02:01:58;2.00;99.90
44695;DHT22;32845;59.422;17.930;2024-01-30T02:06:29;1.90;99.90
44695;DHT22;32845;59.422;17.930;2024-01-30T02:11:00;1.90;99.90
44695;DHT22;32845;59.422;17.930;2024-01-30T02:15:30;1.80;99.90
44695;DHT22;32845;59.422;17.930;2024-01-30T02:20:01;1.80;99.90
44695;DHT22;32845;59.422;17.930;2024-01-30T02:24:32;1.80;99.90
44695;DHT22;32845;59.422;17.930;2024-01-30T02:29:02;1.70;99.90
44695;DHT22;32845;59.422;17.930;2024-01-30T02:33:33;1.70;99.90
44695;DHT22;32845;59.422;17.930;2024-01-30T02:38:04;1.70;99.90
44695;DHT22;32845;59.422;17.930;2024-01-30T02:42:34;1.70;99.90
44695;DHT22;32845;59.422;17.930;2024-01-30T02:47:05;1.70;99.90
44695;DHT22;32845;59.422;17.930;2024-01-30T02:51:36;1.70;99.90
44695;DHT22;32845;59.422;17.930;2024-01-30T02:56:06;1.70;99.90
44695;DHT22;32845;59.422;17.930;2024-01-30T03:00:40;1.70;99.90
44695;DHT22;32845;59.422;17.930;2024-01-30T03:05:10;1.70;99.90
44695;DHT22;32845;59.422;17.930;2024-01-30T03:09:41;1.70;99.90
44695;DHT22;32845;59.422;17.930;2024-01-30T03:14:14;1.70;99.90
44695;DHT22;32845;59.422;17.930;2024-01-30T03:18:44;1.70;99.90
44695;DHT22;32845;59.422;17.930;2024-01-30T03:23:15;1.70;99.90
44695;DHT22;32845;59.422;17.930;2024-01-30T03:27:45;1.70;99.90
44695;DHT22;32845;59.422;17.930;2024-01-30T03:32:16;1.60;99.90
44695;DHT22;32845;59.422;17.930;2024-01-30T03:36:46;1.60;99.90
44695;DHT22;32845;59.422;17.930;2024-01-30T03:41:17;1.50;99.90
44695;DHT22;32845;59.422;17.930;2024-01-30T03:45:47;1.50;99.90
44695;DHT22;32845;59.422;17.930;2024-01-30T03:50:18;1.50;99.90
44695;DHT22;32845;59.422;17.930;2024-01-30T03:54:49;1.50;99.90
44695;DHT22;32845;59.422;17.930;2024-01-30T03:59:20;1.50;99.90
44695;DHT22;32845;59.422;17.930;2024-01-30T04:03:54;1.40;99.90
44695;DHT22;32845;59.422;17.930;2024-01-30T04:08:24;1.40;99.90
44695;DHT22;32845;59.422;17.930;2024-01-30T04:12:55;1.40;99.90
44695;DHT22;32845;59.422;17.930;2024-01-30T04:17:26;1.40;99.90
44695;DHT22;32845;59.422;17.930;2024-01-30T04:21:56;1.30;99.90
44695;DHT22;32845;59.422;17.930;2024-01-30T04:26:27;1.30;99.90
44695;DHT22;32845;59.422;17.930;2024-01-30T04:30:58;1.30;99.90
44695;DHT22;32845;59.422;17.930;2024-01-30T04:35:28;1.20;99.90
44695;DHT22;32845;59.422;17.930;2024-01-30T04:39:59;1.20;99.90
44695;DHT22;32845;59.422;17.930;2024-01-30T04:44:30;1.20;99.90
44695;DHT22;32845;59.422;17.930;2024-01-30T04:49:01;1.20;99.90
44695;DHT22;32845;59.422;17.930;2024-01-30T04:53:32;1.10;99.90
44695;DHT22;32845;59.422;17.930;2024-01-30T04:58:02;1.20;99.90
44695;DHT22;32845;59.422;17.930;2024-01-30T05:02:33;1.20;99.90
44695;DHT22;32845;59.422;17.930;2024-01-30T05:07:03;1.20;99.90
44695;DHT22;32845;59.422;17.930;2024-01-30T05:11:38;1.10;99.90
44695;DHT22;32845;59.422;17.930;2024-01-30T05:16:09;1.10;99.90
44695;DHT22;32845;59.422;17.930;2024-01-30T05:20:39;1.10;99.90
44695;DHT22;32845;59.422;17.930;2024-01-30T05:25:12;1.10;99.90
44695;DHT22;32845;59.422;17.930;2024-01-30T05:29:42;1.10;99.90
44695;DHT22;32845;59.422;17.930;2024-01-30T05:34:13;1.10;99.90
44695;DHT22;32845;59.422;17.930;2024-01-30T05:38:43;1.10;99.90
44695;DHT22;32845;59.422;17.930;2024-01-30T05:43:14;1.10;99.90
44695;DHT22;32845;59.422;17.930;2024-01-30T05:47:45;1.10;99.90
44695;DHT22;32845;59.422;17.930;2024-01-30T05:52:15;1.20;99.90
44695;DHT22;32845;59.422;17.930;2024-01-30T05:56:46;1.20;99.90
44695;DHT22;32845;59.422;17.930;2024-01-30T06:01:17;1.20;99.90
44695;DHT22;32845;59.422;17.930;2024-01-30T06:05:48;1.20;99.90
44695;DHT22;32845;59.422;17.930;2024-01-30T06:10:18;1.20;99.90
44695;DHT22;32845;59.422;17.930;2024-01-30T06:14:49;1.20;99.90
44695;DHT22;32845;59.422;17.930;2024-01-30T06:19:19;1.20;99.90
44695;DHT22;32845;59.422;17.930;2024-01-30T06:23:50;1.20;99.90
44695;DHT22;32845;59.422;17.930;2024-01-30T06:28:20;1.20;99.90
44695;DHT22;32845;59.422;17.930;2024-01-30T06:32:51;1.20;99.90
44695;DHT22;32845;59.422;17.930;2024-01-30T06:37:22;1.20;99.90
44695;DHT22;32845;59.422;17.930;2024-01-30T06:41:52;1.20;99.90
44695;DHT22;32845;59.422;17.930;2024-01-30T06:46:23;1.20;99.90
44695;DHT22;32845;59.422;17.930;2024-01-30T06:50:53;1.20;99.90
44695;DHT22;32845;59.422;17.930;2024-01-30T06:55:24;1.20;99.90
44695;DHT22;32845;59.422;17.930;2024-01-30T06:59:55;1.20;99.90
44695;DHT22;32845;59.422;17.930;2024-01-30T07:04:25;1.20;99.90
44695;DHT22;32845;59.422;17.930;2024-01-30T07:08:56;1.20;99.90
44695;DHT22;32845;59.422;17.930;2024-01-30T07:13:27;1.20;99.90
44695;DHT22;32845;59.422;17.930;2024-01-30T07:17:59;1.30;99.90
44695;DHT22;32845;59.422;17.930;2024-01-30T07:22:30;1.30;99.90
44695;DHT22;32845;59.422;17.930;2024-01-30T07:27:01;1.30;99.90
44695;DHT22;32845;59.422;17.930;2024-01-30T07:31:31;1.30;99.90
44695;DHT22;32845;59.422;17.930;2024-01-30T07:36:02;1.30;99.90
44695;DHT22;32845;59.422;17.930;2024-01-30T07:40:32;1.30;99.90
44695;DHT22;32845;59.422;17.930;2024-01-30T07:45:06;1.40;99.90
44695;DHT22;32845;59.422;17.930;2024-01-30T07:49:37;1.40;99.90
44695;DHT22;32845;59.422;17.930;2024-01-30T07:54:08;1.40;99.90
44695;DHT22;32845;59.422;17.930;2024-01-30T07:58:38;1.40;99.90
44695;DHT22;32845;59.422;17.930;2024-01-30T08:03:09;1.40;99.90
44695;DHT22;32845;59.422;17.930;2024-01-30T08:07:39;1.40;99.90
44695;DHT22;32845;59.422;17.930;2024-01-30T08:12:10;1.50;99.90
44695;DHT22;32845;59.422;17.930;2024-01-30T08:16:40;1.50;99.90
44695;DHT22;32845;59.422;17.930;2024-01-30T08:21:11;1.50;99.90
44695;DHT22;32845;59.422;17.930;2024-01-30T08:25:42;1.60;99.90
44695;DHT22;32845;59.422;17.930;2024-01-30T08:30:12;1.60;99.90
44695;DHT22;32845;59.422;17.930;2024-01-30T08:34:43;1.70;99.90
44695;DHT22;32845;59.422;17.930;2024-01-30T08:39:14;1.70;99.90
44695;DHT22;32845;59.422;17.930;2024-01-30T08:43:45;1.80;99.90
44695;DHT22;32845;59.422;17.930;2024-01-30T08:48:15;1.80;99.90
44695;DHT22;32845;59.422;17.930;2024-01-30T08:52:46;1.90;99.90
44695;DHT22;32845;59.422;17.930;2024-01-30T08:57:16;1.90;99.90
44695;DHT22;32845;59.422;17.930;2024-01-30T09:01:47;2.00;99.90
44695;DHT22;32845;59.422;17.930;2024-01-30T09:06:17;2.10;99.90
44695;DHT22;32845;59.422;17.930;2024-01-30T09:10:48;2.10;99.90
44695;DHT22;32845;59.422;17.930;2024-01-30T09:15:25;2.20;99.90
44695;DHT22;32845;59.422;17.930;2024-01-30T09:19:55;2.30;99.90
44695;DHT22;32845;59.422;17.930;2024-01-30T09:24:27;2.40;99.90
44695;DHT22;32845;59.422;17.930;2024-01-30T09:28:57;2.40;99.90
44695;DHT22;32845;59.422;17.930;2024-01-30T09:33:28;2.50;99.90
44695;DHT22;32845;59.422;17.930;2024-01-30T09:37:58;2.60;99.90
44695;DHT22;32845;59.422;17.930;2024-01-30T09:42:36;2.70;99.90
44695;DHT22;32845;59.422;17.930;2024-01-30T09:47:06;2.70;99.90
44695;DHT22;32845;59.422;17.930;2024-01-30T09:51:38;2.80;99.90
44695;DHT22;32845;59.422;17.930;2024-01-30T09:56:09;2.80;99.90
44695;DHT22;32845;59.422;17.930;2024-01-30T10:00:39;2.90;99.90
44695;DHT22;32845;59.422;17.930;2024-01-30T10:05:11;2.90;99.90
44695;DHT22;32845;59.422;17.930;2024-01-30T10:09:45;3.00;99.90
44695;DHT22;32845;59.422;17.930;2024-01-30T10:14:16;3.00;99.90
44695;DHT22;32845;59.422;17.930;2024-01-30T10:18:47;2.90;99.90
44695;DHT22;32845;59.422;17.930;2024-01-30T10:23:18;2.90;99.90
44695;DHT22;32845;59.422;17.930;2024-01-30T10:27:53;2.80;99.90
44695;DHT22;32845;59.422;17.930;2024-01-30T10:32:27;2.80;99.90
44695;DHT22;32845;59.422;17.930;2024-01-30T10:37:07;2.80;99.90
44695;DHT22;32845;59.422;17.930;2024-01-30T10:41:47;2.80;99.90
44695;DHT22;32845;59.422;17.930;2024-01-30T10:46:20;2.90;99.90
44695;DHT22;32845;59.422;17.930;2024-01-30T10:50:53;2.90;99.90
44695;DHT22;32845;59.422;17.930;2024-01-30T10:55:26;3.00;99.90
44695;DHT22;32845;59.422;17.930;2024-01-30T11:00:00;3.00;99.90
44695;DHT22;32845;59.422;17.930;2024-01-30T11:04:40;3.10;99.90
44695;DHT22;32845;59.422;17.930;2024-01-30T11:09:11;3.10;99.90
44695;DHT22;32845;59.422;17.930;2024-01-30T11:13:43;3.20;99.90
44695;DHT22;32845;59.422;17.930;2024-01-30T11:18:23;3.20;99.90
44695;DHT22;32845;59.422;17.930;2024-01-30T11:22:56;3.30;99.90
44695;DHT22;32845;59.422;17.930;2024-01-30T11:27:27;3.40;99.90
44695;DHT22;32845;59.422;17.930;2024-01-30T11:31:58;3.40;99.90
44695;DHT22;32845;59.422;17.930;2024-01-30T11:36:30;3.50;99.90
44695;DHT22;32845;59.422;17.930;2024-01-30T11:41:03;3.60;99.90
44695;DHT22;32845;59.422;17.930;2024-01-30T11:45:36;3.70;99.90
44695;DHT22;32845;59.422;17.930;2024-01-30T11:50:07;3.80;99.90
44695;DHT22;32845;59.422;17.930;2024-01-30T11:54:41;3.80;99.90
44695;DHT22;32845;59.422;17.930;2024-01-30T11:59:12;3.90;99.90
44695;DHT22;32845;59.422;17.930;2024-01-30T12:03:49;3.90;99.90
44695;DHT22;32845;59.422;17.930;2024-01-30T12:08:20;3.90;99.90
44695;DHT22;32845;59.422;17.930;2024-01-30T12:12:51;4.00;99.90
44695;DHT22;32845;59.422;17.930;2024-01-30T12:17:32;3.90;99.90
44695;DHT22;32845;59.422;17.930;2024-01-30T12:22:03;3.90;99.90
44695;DHT22;32845;59.422;17.930;2024-01-30T12:26:33;3.90;99.90
44695;DHT22;32845;59.422;17.930;2024-01-30T12:31:04;3.90;99.90
44695;DHT22;32845;59.422;17.930;2024-01-30T12:35:35;3.90;99.90
44695;DHT22;32845;59.422;17.930;2024-01-30T12:40:07;3.90;99.90
44695;DHT22;32845;59.422;17.930;2024-01-30T12:44:38;3.90;99.90
44695;DHT22;32845;59.422;17.930;2024-01-30T12:49:09;4.00;99.90
44695;DHT22;32845;59.422;17.930;2024-01-30T12:53:39;4.00;99.90
44695;DHT22;32845;59.422;17.930;2024-01-30T12:58:10;4.10;99.90
44695;DHT22;32845;59.422;17.930;2024-01-30T13:02:41;4.10;99.90
44695;DHT22;32845;59.422;17.930;2024-01-30T13:07:13;4.10;99.90
44695;DHT22;32845;59.422;17.930;2024-01-30T13:11:43;4.10;99.90
44695;DHT22;32845;59.422;17.930;2024-01-30T13:16:14;4.20;99.90
44695;DHT22;32845;59.422;17.930;2024-01-30T13:20:44;4.20;99.90
44695;DHT22;32845;59.422;17.930;2024-01-30T13:25:15;4.20;99.90
44695;DHT22;32845;59.422;17.930;2024-01-30T13:29:46;4.20;99.90
44695;DHT22;32845;59.422;17.930;2024-01-30T13:34:16;4.20;99.90
44695;DHT22;32845;59.422;17.930;2024-01-30T13:38:47;4.20;99.90
44695;DHT22;32845;59.422;17.930;2024-01-30T13:43:18;4.20;99.90
44695;DHT22;32845;59.422;17.930;2024-01-30T13:47:49;4.20;99.90
44695;DHT22;32845;59.422;17.930;2024-01-30T13:52:19;4.20;99.90
44695;DHT22;32845;59.422;17.930;2024-01-30T13:56:50;4.20;99.90
44695;DHT22;32845;59.422;17.930;2024-01-30T14:01:20;4.20;99.90
44695;DHT22;32845;59.422;17.930;2024-01-30T14:05:51;4.10;99.90
44695;DHT22;32845;59.422;17.930;2024-01-30T14:10:22;4.10;99.90
44695;DHT22;32845;59.422;17.930;2024-01-30T14:14:52;4.10;99.90
44695;DHT22;32845;59.422;17.930;2024-01-30T14:19:23;4.10;99.90
44695;DHT22;32845;59.422;17.930;2024-01-30T14:23:53;4.10;99.90
44695;DHT22;32845;59.422;17.930;2024-01-30T14:28:24;4.10;99.90
44695;DHT22;32845;59.422;17.930;2024-01-30T14:32:54;4.10;99.90
44695;DHT22;32845;59.422;17.930;2024-01-30T14:37:26;4.10;99.90
44695;DHT22;32845;59.422;17.930;2024-01-30T14:41:59;4.10;99.90
44695;DHT22;32845;59.422;17.930;2024-01-30T14:46:30;4.00;99.90
44695;DHT22;32845;59.422;17.930;2024-01-30T14:51:01;4.10;99.90
44695;DHT22;32845;59.422;17.930;2024-01-30T14:55:31;4.00;99.90
44695;DHT22;32845;59.422;17.930;2024-01-30T15:00:02;4.00;99.90
44695;DHT22;32845;59.422;17.930;2024-01-30T15:04:33;4.00;99.90
44695;DHT22;32845;59.422;17.930;2024-01-30T15:09:04;4.00;99.90
44695;DHT22;32845;59.422;17.930;2024-01-30T15:13:35;4.00;99.90
44695;DHT22;32845;59.422;17.930;2024-01-30T15:18:06;4.00;99.90
44695;DHT22;32845;59.422;17.930;2024-01-30T15:22:37;3.90;99.90
44695;DHT22;32845;59.422;17.930;2024-01-30T15:27:08;3.90;99.90
44695;DHT22;32845;59.422;17.930;2024-01-30T15:31:38;3.90;99.90
44695;DHT22;32845;59.422;17.930;2024-01-30T15:36:10;3.90;99.90
44695;DHT22;32845;59.422;17.930;2024-01-30T15:40:43;3.80;99.90
44695;DHT22;32845;59.422;17.930;2024-01-30T15:45:14;3.80;99.90
44695;DHT22;32845;59.422;17.930;2024-01-30T15:49:44;3.80;99.90
44695;DHT22;32845;59.422;17.930;2024-01-30T15:54:16;3.80;99.90
44695;DHT22;32845;59.422;17.930;2024-01-30T15:58:47;3.80;99.90
44695;DHT22;32845;59.422;17.930;2024-01-30T16:03:20;3.80;99.90
44695;DHT22;32845;59.422;17.930;2024-01-30T16:07:51;3.80;99.90
44695;DHT22;32845;59.422;17.930;2024-01-30T16:12:21;3.80;99.90
44695;DHT22;32845;59.422;17.930;2024-01-30T16:16:52;3.70;99.90
44695;DHT22;32845;59.422;17.930;2024-01-30T16:21:22;3.70;99.90
44695;DHT22;32845;59.422;17.930;2024-01-30T16:25:54;3.70;99.90
44695;DHT22;32845;59.422;17.930;2024-01-30T16:30:24;3.70;99.90
44695;DHT22;32845;59.422;17.930;2024-01-30T16:34:55;3.80;99.90
44695;DHT22;32845;59.422;17.930;2024-01-30T16:39:26;3.70;99.90
44695;DHT22;32845;59.422;17.930;2024-01-30T16:43:56;3.80;99.90
44695;DHT22;32845;59.422;17.930;2024-01-30T16:48:27;3.70;99.90
44695;DHT22;32845;59.422;17.930;2024-01-30T16:52:58;3.70;99.90
44695;DHT22;32845;59.422;17.930;2024-01-30T16:57:28;3.80;99.90
44695;DHT22;32845;59.422;17.930;2024-01-30T17:01:59;3.80;99.90
44695;DHT22;32845;59.422;17.930;2024-01-30T17:06:29;3.80;99.90
44695;DHT22;32845;59.422;17.930;2024-01-30T17:11:00;3.80;99.90
44695;DHT22;32845;59.422;17.930;2024-01-30T17:15:30;3.80;99.90
44695;DHT22;32845;59.422;17.930;2024-01-30T17:20:01;3.80;99.90
44695;DHT22;32845;59.422;17.930;2024-01-30T17:24:33;3.80;99.90
44695;DHT22;32845;59.422;17.930;2024-01-30T17:29:03;3.80;99.90
44695;DHT22;32845;59.422;17.930;2024-01-30T17:33:34;3.90;99.90
44695;DHT22;32845;59.422;17.930;2024-01-30T17:38:05;3.90;99.90
44695;DHT22;32845;59.422;17.930;2024-01-30T17:42:36;3.90;99.90
44695;DHT22;32845;59.422;17.930;2024-01-30T17:47:06;3.90;99.90
44695;DHT22;32845;59.422;17.930;2024-01-30T17:51:40;3.90;99.90
44695;DHT22;32845;59.422;17.930;2024-01-30T17:56:10;3.90;99.90
44695;DHT22;32845;59.422;17.930;2024-01-30T18:00:41;3.90;99.90
44695;DHT22;32845;59.422;17.930;2024-01-30T18:05:12;3.90;99.90
44695;DHT22;32845;59.422;17.930;2024-01-30T18:09:43;3.90;99.90
44695;DHT22;32845;59.422;17.930;2024-01-30T18:14:14;3.90;99.90
44695;DHT22;32845;59.422;17.930;2024-01-30T18:18:44;3.90;99.90
44695;DHT22;32845;59.422;17.930;2024-01-30T18:23:15;3.90;99.90
44695;DHT22;32845;59.422;17.930;2024-01-30T18:27:46;3.90;99.90
44695;DHT22;32845;59.422;17.930;2024-01-30T18:32:16;3.90;99.90
44695;DHT22;32845;59.422;17.930;2024-01-30T18:36:52;3.90;99.90
44695;DHT22;32845;59.422;17.930;2024-01-30T18:41:23;4.00;99.90
44695;DHT22;32845;59.422;17.930;2024-01-30T18:45:54;4.00;99.90
44695;DHT22;32845;59.422;17.930;2024-01-30T18:50:24;4.00;99.90
44695;DHT22;32845;59.422;17.930;2024-01-30T18:54:55;4.10;99.90
44695;DHT22;32845;59.422;17.930;2024-01-30T18:59:26;4.10;99.90
44695;DHT22;32845;59.422;17.930;2024-01-30T19:03:57;4.10;99.90
44695;DHT22;32845;59.422;17.930;2024-01-30T19:08:27;4.20;99.90
44695;DHT22;32845;59.422;17.930;2024-01-30T19:12:58;4.20;99.90
44695;DHT22;32845;59.422;17.930;2024-01-30T19:17:28;4.20;99.90
44695;DHT22;32845;59.422;17.930;2024-01-30T19:21:59;4.30;99.90
44695;DHT22;32845;59.422;17.930;2024-01-30T19:26:30;4.30;99.90
44695;DHT22;32845;59.422;17.930;2024-01-30T19:31:00;4.30;99.90
44695;DHT22;32845;59.422;17.930;2024-01-30T19:35:32;4.30;99.90
44695;DHT22;32845;59.422;17.930;2024-01-30T19:40:03;4.30;99.90
44695;DHT22;32845;59.422;17.930;2024-01-30T19:44:37;4.30;99.90
44695;DHT22;32845;59.422;17.930;2024-01-30T19:49:09;4.30;99.90
44695;DHT22;32845;59.422;17.930;2024-01-30T19:53:40;4.30;99.90
44695;DHT22;32845;59.422;17.930;2024-01-30T19:58:10;4.30;99.90
44695;DHT22;32845;59.422;17.930;2024-01-30T20:02:42;4.30;99.90
44695;DHT22;32845;59.422;17.930;2024-01-30T20:07:13;4.30;99.90
44695;DHT22;32845;59.422;17.930;2024-01-30T20:11:44;4.30;99.90
44695;DHT22;32845;59.422;17.930;2024-01-30T20:16:14;4.20;99.90
44695;DHT22;32845;59.422;17.930;2024-01-30T20:20:45;4.20;99.90
44695;DHT22;32845;59.422;17.930;2024-01-30T20:25:16;4.20;99.90
44695;DHT22;32845;59.422;17.930;2024-01-30T20:29:46;4.20;99.90
44695;DHT22;32845;59.422;17.930;2024-01-30T20:34:17;4.20;99.90
44695;DHT22;32845;59.422;17.930;2024-01-30T20:38:48;4.20;99.90
44695;DHT22;32845;59.422;17.930;2024-01-30T20:43:18;4.20;99.90
44695;DHT22;32845;59.422;17.930;2024-01-30T20:47:49;4.20;99.90
44695;DHT22;32845;59.422;17.930;2024-01-30T20:52:19;4.20;99.90
44695;DHT22;32845;59.422;17.930;2024-01-30T20:56:50;4.10;99.90
44695;DHT22;32845;59.422;17.930;2024-01-30T21:01:20;4.10;99.90
44695;DHT22;32845;59.422;17.930;2024-01-30T21:05:51;4.10;99.90
44695;DHT22;32845;59.422;17.930;2024-01-30T21:10:22;4.10;99.90
44695;DHT22;32845;59.422;17.930;2024-01-30T21:14:52;4.10;99.90
44695;DHT22;32845;59.422;17.930;2024-01-30T21:19:23;4.10;99.90
44695;DHT22;32845;59.422;17.930;2024-01-30T21:23:53;4.10;99.90
44695;DHT22;32845;59.422;17.930;2024-01-30T21:28:24;4.10;99.90
44695;DHT22;32845;59.422;17.930;2024-01-30T21:32:54;4.10;99.90
44695;DHT22;32845;59.422;17.930;2024-01-30T21:37:25;4.10;99.90
44695;DHT22;32845;59.422;17.930;2024-01-30T21:41:56;4.10;99.90
44695;DHT22;32845;59.422;17.930;2024-01-30T21:46:27;4.10;99.90
44695;DHT22;32845;59.422;17.930;2024-01-30T21:50:57;4.10;99.90
44695;DHT22;32845;59.422;17.930;2024-01-30T21:55:28;4.10;99.90
44695;DHT22;32845;59.422;17.930;2024-01-30T21:59:59;4.10;99.90
44695;DHT22;32845;59.422;17.930;2024-01-30T22:04:30;4.10;99.90
44695;DHT22;32845;59.422;17.930;2024-01-30T22:09:00;4.10;99.90
44695;DHT22;32845;59.422;17.930;2024-01-30T22:13:31;4.10;99.90
44695;DHT22;32845;59.422;17.930;2024-01-30T22:18:04;4.10;99.90
44695;DHT22;32845;59.422;17.930;2024-01-30T22:22:35;4.10;99.90
44695;DHT22;32845;59.422;17.930;2024-01-30T22:27:05;4.10;99.90
44695;DHT22;32845;59.422;17.930;2024-01-30T22:31:36;4.10;99.90
44695;DHT22;32845;59.422;17.930;2024-01-30T22:36:07;4.10;99.90
44695;DHT22;32845;59.422;17.930;2024-01-30T22:40:37;4.20;99.90
44695;DHT22;32845;59.422;17.930;2024-01-30T22:45:08;4.20;99.90
44695;DHT22;32845;59.422;17.930;2024-01-30T22:49:38;4.20;99.90
44695;DHT22;32845;59.422;17.930;2024-01-30T22:54:09;4.20;99.90
44695;DHT22;32845;59.422;17.930;2024-01-30T22:58:40;4.30;99.90
44695;DHT22;32845;59.422;17.930;2024-01-30T23:03:10;4.20;99.90
44695;DHT22;32845;59.422;17.930;2024-01-30T23:07:41;4.30;99.90
44695;DHT22;32845;59.422;17.930;2024-01-30T23:12:11;4.30;99.90
44695;DHT22;32845;59.422;17.930;2024-01-30T23:16:42;4.30;99.90
44695;DHT22;32845;59.422;17.930;2024-01-30T23:21:13;4.30;99.90
44695;DHT22;32845;59.422;17.930;2024-01-30T23:25:43;4.40;99.90
44695;DHT22;32845;59.422;17.930;2024-01-30T23:30:14;4.40;99.90
44695;DHT22;32845;59.422;17.930;2024-01-30T23:34:45;4.40;99.90
44695;DHT22;32845;59.422;17.930;2024-01-30T23:39:15;4.40;99.90
44695;DHT22;32845;59.422;17.930;2024-01-30T23:43:46;4.40;99.90
44695;DHT22;32845;59.422;17.930;2024-01-30T23:48:17;4.40;99.90
44695;DHT22;32845;59.422;17.930;2024-01-30T23:52:47;4.40;99.90
44695;DHT22;32845;59.422;17.930;2024-01-30T23:57:19;4.40;99.90
